Texas City, Texas
Current Conditions -  °F | °C
As of 6:52 PM on Wednesday 22 Oct 2014 (Local Time) from KGLS Reporting Station
Clear Clear  
Wind Chill: 74°   Ceiling: Unl
Heat Index: 74°   Visibility: 10mi
Dew Point: 61°   Wind: 8mph
Humidity: 64%   Direction: 90°E
Pressure: 30.04"   Gusts: NA
Location:  29.39°N, 94.92°W
Report Text: KGLS 222352Z AUTO 09007KT 10SM CLR 23/16 A3004 RMK AO2 SLP173 T02330161 10267 20233 55000
Loading
Personal Weather Stations






























Interactive Weather Map
Tropical Storm Tracking
New forecast layout! Learn more

10-Day Weather Forecast

Advertisements
Track Severe Weather on mobile